Time;durP1;ratioP1;P1;durP2;ratioP2;P2;SDS_P1;SDS_P2;PMS_P1;PMS_P2;Temp;Humidity;BMP_temperature;BMP_pressure;BME280_temperature;BME280_humidity;BME280_pressure;Samples;Min_cycle;Max_cycle;Signal;HPM_P1;HPM_P2
2023/07/13 00:01:17;;;;;;;4.90;3.47;;;;;;;12.96;74.40;98437.88;4958935;28;20057;-63
2023/07/13 00:03:42;;;;;;;4.55;3.40;;;;;;;12.95;75.11;98410.28;4958111;28;20409;-63
2023/07/13 00:06:08;;;;;;;4.10;3.15;;;;;;;12.90;75.05;98406.38;4958613;28;20050;-63
2023/07/13 00:08:34;;;;;;;7.07;3.20;;;;;;;12.90;75.45;98411.72;4958555;28;20038;-63
2023/07/13 00:11:01;;;;;;;3.45;3.10;;;;;;;12.91;74.92;98416.06;4958161;28;20046;-62
2023/07/13 00:13:27;;;;;;;4.10;3.13;;;;;;;12.90;74.96;98433.97;4958383;28;20053;-64
2023/07/13 00:15:53;;;;;;;4.07;3.15;;;;;;;12.91;75.48;98418.75;4958427;28;20050;-65
2023/07/13 00:18:19;;;;;;;5.20;3.22;;;;;;;12.91;75.78;98414.25;4958474;28;20042;-64
2023/07/13 00:20:44;;;;;;;4.28;3.70;;;;;;;12.90;75.27;98420.59;4958263;28;20049;-64
2023/07/13 00:23:10;;;;;;;4.97;3.42;;;;;;;12.92;75.54;98420.44;4953869;28;20501;-64
2023/07/13 00:25:36;;;;;;;3.20;2.90;;;;;;;12.94;75.50;98419.28;4938940;28;20051;-65
2023/07/13 00:28:02;;;;;;;3.13;2.83;;;;;;;12.96;75.43;98422.66;4938785;28;20043;-65
2023/07/13 00:30:28;;;;;;;4.45;3.20;;;;;;;12.98;75.51;98420.66;4939005;28;20055;-67
2023/07/13 00:32:56;;;;;;;3.45;2.95;;;;;;;12.98;75.09;98426.00;4944385;28;20050;-65
2023/07/13 00:35:21;;;;;;;4.28;3.22;;;;;;;12.99;75.75;98416.13;4973166;28;20061;-66
2023/07/13 00:37:46;;;;;;;6.03;3.50;;;;;;;12.99;75.60;98414.31;4956990;28;20046;-65
2023/07/13 00:40:13;;;;;;;4.30;3.50;;;;;;;12.98;75.00;98414.50;4957888;28;20050;-65
2023/07/13 00:42:39;;;;;;;8.48;3.35;;;;;;;12.96;75.27;98427.16;4957684;28;20420;-63
2023/07/13 00:45:12;;;;;;;4.38;3.03;;;;;;;12.97;75.54;98419.00;4973159;28;20054;-66
2023/07/13 00:47:38;;;;;;;5.47;3.22;;;;;;;12.95;75.55;98410.28;4957885;28;20397;-65
2023/07/13 00:50:07;;;;;;;5.20;3.78;;;;;;;12.97;75.70;98419.00;4957922;28;20061;-62
2023/07/13 00:52:34;;;;;;;5.90;3.42;;;;;;;12.92;75.39;98415.94;4956212;28;20754;-64
2023/07/13 00:54:59;;;;;;;6.43;3.35;;;;;;;12.94;75.23;98413.09;4972611;28;20050;-61
2023/07/13 00:57:25;;;;;;;3.90;2.95;;;;;;;12.92;75.53;98420.44;4957659;28;20042;-63
2023/07/13 00:59:58;;;;;;;4.90;3.25;;;;;;;12.94;75.90;98418.47;4957740;28;20062;-64
2023/07/13 01:02:25;;;;;;;3.95;3.05;;;;;;;12.89;75.52;98405.53;4957676;28;20408;-63
2023/07/13 01:04:50;;;;;;;7.32;3.72;;;;;;;12.91;75.60;98416.91;4972573;28;20050;-63
2023/07/13 01:07:16;;;;;;;8.25;3.85;;;;;;;12.89;76.33;98418.06;4924166;28;20432;-63
2023/07/13 01:09:41;;;;;;;4.53;3.58;;;;;;;12.90;75.83;98427.78;4972176;28;20038;-63
2023/07/13 01:12:07;;;;;;;4.63;3.33;;;;;;;12.88;76.01;98417.22;4957351;28;20054;-63
2023/07/13 01:14:32;;;;;;;4.35;3.47;;;;;;;12.89;75.57;98404.69;4955392;28;20042;-64
2023/07/13 01:17:00;;;;;;;4.28;3.13;;;;;;;12.88;75.80;98414.53;4971553;28;20444;-64
2023/07/13 01:19:37;;;;;;;3.80;3.10;;;;;;;12.92;76.08;98417.75;4944577;28;20046;-65
2023/07/13 01:22:11;;;;;;;5.28;3.20;;;;;;;12.89;76.41;98407.38;4937919;28;20535;-66
2023/07/13 01:24:38;;;;;;;;;;;;;;;13.03;76.18;98417.53;4963877;28;20050;-68
2023/07/13 01:27:05;;;;;;;4.65;2.95;;;;;;;12.90;76.04;98411.72;4957533;28;20739;-66
2023/07/13 01:29:32;;;;;;;4.40;2.80;;;;;;;12.88;76.21;98381.59;4955962;28;20053;-64
2023/07/13 01:31:59;;;;;;;3.83;3.40;;;;;;;12.89;76.44;98400.19;4972398;28;20045;-65
2023/07/13 01:34:25;;;;;;;4.10;3.47;;;;;;;12.89;76.10;98407.38;4955112;28;20473;-67
2023/07/13 01:36:53;;;;;;;4.05;3.17;;;;;;;12.89;76.14;98400.19;4956046;28;20081;-63
2023/07/13 01:39:19;;;;;;;4.72;3.55;;;;;;;12.89;76.52;98396.66;4971998;28;20511;-62
2023/07/13 01:41:45;;;;;;;6.25;4.00;;;;;;;12.87;76.21;98401.31;4942435;28;20058;-62
2023/07/13 01:44:10;;;;;;;4.93;3.67;;;;;;;12.84;76.60;98396.31;4941464;28;20046;-62
2023/07/13 01:46:35;;;;;;;3.65;3.10;;;;;;;12.82;76.71;98399.13;4937398;28;20051;-62
2023/07/13 01:49:00;;;;;;;9.77;3.67;;;;;;;12.81;76.76;98391.25;4954568;28;20042;-62
2023/07/13 01:51:25;;;;;;;4.47;3.40;;;;;;;12.77;76.83;98381.84;4940435;28;20081;-62
2023/07/13 01:53:51;;;;;;;4.88;3.40;;;;;;;12.78;77.45;98383.53;4940371;28;20408;-62
2023/07/13 01:56:16;;;;;;;4.95;3.30;;;;;;;12.81;77.20;98380.56;4939849;28;20409;-62
2023/07/13 01:58:41;;;;;;;7.68;3.78;;;;;;;12.81;76.81;98380.56;4940250;28;20049;-61
2023/07/13 02:01:06;;;;;;;7.97;4.32;;;;;;;12.82;77.34;98383.09;4952358;28;20515;-62
2023/07/13 02:03:31;;;;;;;4.50;3.28;;;;;;;12.86;77.41;98378.28;4939175;28;20046;-62
2023/07/13 02:05:57;;;;;;;4.90;3.95;;;;;;;12.86;77.43;98375.59;4937287;28;20413;-63
2023/07/13 02:08:23;;;;;;;5.28;3.58;;;;;;;12.89;77.42;98372.59;4943793;28;20049;-62
2023/07/13 02:10:48;;;;;;;3.33;3.03;;;;;;;12.93;77.28;98369.47;4958199;28;20051;-62
2023/07/13 02:13:13;;;;;;;4.45;3.38;;;;;;;12.95;77.24;98372.00;4941405;28;20045;-63
2023/07/13 02:15:40;;;;;;;5.35;3.63;;;;;;;12.98;76.68;98382.38;4950589;28;20076;-63
2023/07/13 02:18:06;;;;;;;5.85;3.70;;;;;;;13.00;76.86;98375.00;4956087;28;20046;-64
2023/07/13 02:20:51;;;;;;;7.82;3.72;;;;;;;12.98;76.30;98375.16;4955123;28;20046;-63
2023/07/13 02:23:16;;;;;;;7.75;3.90;;;;;;;13.00;76.98;98369.66;4955923;28;20051;-64
2023/07/13 02:25:41;;;;;;;7.40;3.70;;;;;;;13.05;77.07;98383.44;4956136;28;20050;-64
2023/07/13 02:28:07;;;;;;;4.95;3.70;;;;;;;13.08;76.25;98378.63;4971160;28;20409;-64
2023/07/13 02:30:34;;;;;;;4.03;3.63;;;;;;;13.09;76.54;98353.50;4956078;28;20057;-64
2023/07/13 02:32:59;;;;;;;7.05;3.53;;;;;;;13.08;76.48;98385.81;4955908;28;20042;-64
2023/07/13 02:35:24;;;;;;;4.90;3.67;;;;;;;13.09;76.66;98379.47;4955803;28;20073;-64
2023/07/13 02:37:50;;;;;;;5.65;3.85;;;;;;;13.13;76.50;98375.44;4955705;28;20049;-65
2023/07/13 02:40:15;;;;;;;5.18;3.92;;;;;;;13.16;76.73;98367.16;4970737;28;20042;-65
2023/07/13 02:42:40;;;;;;;5.75;3.63;;;;;;;13.17;76.19;98366.16;4955936;28;20045;-64
2023/07/13 02:45:08;;;;;;;6.10;3.60;;;;;;;13.18;76.27;98367.84;4970375;28;20046;-62
2023/07/13 02:47:36;;;;;;;5.65;4.00;;;;;;;13.20;76.67;98365.84;4956116;28;20038;-62
2023/07/13 02:50:02;;;;;;;8.07;4.05;;;;;;;13.25;76.36;98363.53;4954197;28;20054;-67
2023/07/13 02:52:29;;;;;;;4.28;3.30;;;;;;;13.27;76.07;98356.19;4956051;28;20049;-68
2023/07/13 02:54:55;;;;;;;7.10;3.63;;;;;;;13.33;76.06;98360.06;4971288;28;20050;-68
2023/07/13 02:57:20;;;;;;;6.32;4.03;;;;;;;13.30;75.95;98361.22;4970228;28;20806;-67
2023/07/13 02:59:45;;;;;;;5.85;3.70;;;;;;;13.30;75.57;98361.22;4956879;28;20043;-69
2023/07/13 03:02:11;;;;;;;4.32;3.63;;;;;;;13.32;75.71;98294.97;4951281;28;20038;-68
2023/07/13 03:04:37;;;;;;;5.32;3.67;;;;;;;13.32;75.93;98476.16;4937430;28;20417;-69
2023/07/13 03:07:03;;;;;;;9.88;4.25;;;;;;;13.37;75.47;98356.06;4953740;28;20038;-69
2023/07/13 03:09:35;;;;;;;4.95;3.22;;;;;;;13.38;75.92;98363.09;4950509;28;20054;-69
2023/07/13 03:12:02;;;;;;;5.55;3.95;;;;;;;13.38;76.10;98342.53;4953774;28;20069;-67
2023/07/13 03:14:30;;;;;;;3.78;3.38;;;;;;;13.43;75.96;98344.75;4968644;28;20046;-69
2023/07/13 03:16:56;;;;;;;7.63;3.90;;;;;;;13.45;75.87;98343.56;4956946;28;20043;-69
2023/07/13 03:19:24;;;;;;;4.35;3.58;;;;;;;13.41;75.86;98336.88;4954035;28;20054;-70
2023/07/13 03:21:51;;;;;;;7.85;3.65;;;;;;;13.51;75.66;98351.97;4958509;28;20042;-69
2023/07/13 03:24:16;;;;;;;9.63;3.85;;;;;;;13.52;75.41;98359.84;4965411;28;20050;-69
2023/07/13 03:26:42;;;;;;;4.85;3.25;;;;;;;13.53;75.27;98352.66;4960257;28;20046;-69
2023/07/13 03:29:07;;;;;;;3.17;2.88;;;;;;;13.62;75.40;98359.72;4954671;28;20416;-70
2023/07/13 03:31:35;;;;;;;5.95;4.00;;;;;;;13.66;75.26;98361.06;4956567;28;20043;-69
2023/07/13 03:34:00;;;;;;;5.18;3.80;;;;;;;13.73;75.10;98372.84;4965534;28;20050;-68
2023/07/13 03:36:30;;;;;;;7.20;3.60;;;;;;;13.81;74.99;98360.31;4960529;28;20051;-69
2023/07/13 03:39:00;;;;;;;6.57;3.72;;;;;;;13.87;75.29;98358.84;4941507;28;20536;-68
2023/07/13 03:41:33;;;;;;;14.77;3.55;;;;;;;13.93;74.76;98349.31;4956508;28;20051;-68
2023/07/13 03:43:58;;;;;;;4.00;3.58;;;;;;;13.99;74.78;98357.53;4953695;28;20054;-68
2023/07/13 03:46:25;;;;;;;6.53;4.15;;;;;;;14.05;74.56;98362.25;4956654;28;20404;-68
2023/07/13 03:48:51;;;;;;;4.88;3.80;;;;;;;14.06;73.95;98390.72;4972956;28;20053;-69
2023/07/13 03:51:17;;;;;;;4.97;3.72;;;;;;;14.14;74.34;98371.97;4940686;28;20053;-69
2023/07/13 03:53:46;;;;;;;6.38;4.10;;;;;;;14.25;74.13;98365.47;4973271;28;20050;-69
2023/07/13 03:56:15;;;;;;;3.88;3.42;;;;;;;14.34;74.14;98369.00;4973205;28;20528;-69
2023/07/13 03:58:43;;;;;;;5.53;3.70;;;;;;;14.43;73.54;98370.75;4973942;28;20056;-71
2023/07/13 04:01:15;;;;;;;5.43;3.58;;;;;;;14.49;72.96;98370.09;4973887;28;20357;-70
2023/07/13 04:03:41;;;;;;;4.85;3.70;;;;;;;14.50;72.91;98369.91;4974007;28;20057;-70
2023/07/13 04:06:08;;;;;;;5.38;3.83;;;;;;;14.54;73.22;98373.13;4957061;28;20050;-71
2023/07/13 04:08:36;;;;;;;7.30;4.10;;;;;;;14.59;72.84;98375.28;4974114;28;20050;-70
2023/07/13 04:11:03;;;;;;;7.80;4.82;;;;;;;14.60;72.61;98328.69;4957615;28;20046;-69
2023/07/13 04:13:28;;;;;;;5.40;3.72;;;;;;;14.61;72.32;98362.56;4973793;28;20069;-70
2023/07/13 04:15:53;;;;;;;9.30;3.58;;;;;;;14.61;72.32;98375.97;4958515;28;20053;-69
2023/07/13 04:18:20;;;;;;;9.18;3.97;;;;;;;14.62;72.49;98380.31;4958651;28;20061;-71
2023/07/13 04:20:50;;;;;;;5.30;3.83;;;;;;;14.64;72.79;98383.69;4957138;28;20045;-70
2023/07/13 04:23:16;;;;;;;6.85;3.65;;;;;;;14.65;72.76;98402.31;4972657;28;20190;-71
2023/07/13 04:25:49;;;;;;;8.20;4.30;;;;;;;14.78;72.88;98372.31;4958304;28;20047;-69
2023/07/13 04:28:17;;;;;;;6.97;4.05;;;;;;;14.78;72.76;98385.72;4957184;28;20468;-71
2023/07/13 04:30:43;;;;;;;8.13;3.92;;;;;;;14.79;72.38;98365.91;4958421;28;20614;-69
2023/07/13 04:33:08;;;;;;;10.52;3.75;;;;;;;14.80;72.30;98344.28;4958164;28;20053;-70
2023/07/13 04:35:34;;;;;;;5.25;3.78;;;;;;;14.77;72.14;98363.41;4958302;28;20042;-69
2023/07/13 04:38:00;;;;;;;6.43;3.92;;;;;;;14.79;72.15;98356.00;4957057;28;20057;-68
2023/07/13 04:40:26;;;;;;;5.32;3.85;;;;;;;14.86;71.92;98364.25;4956903;28;20050;-70
2023/07/13 04:42:51;;;;;;;5.53;3.60;;;;;;;14.89;72.03;98377.34;4957826;28;20042;-69
2023/07/13 04:45:17;;;;;;;6.78;3.72;;;;;;;14.90;71.74;98369.09;4957927;28;20038;-69
2023/07/13 04:47:43;;;;;;;6.00;4.07;;;;;;;14.98;71.71;98368.28;4958413;28;20057;-69
2023/07/13 04:50:10;;;;;;;5.47;4.22;;;;;;;15.09;71.63;98373.31;4957684;28;20041;-71
2023/07/13 04:52:37;;;;;;;7.15;4.25;;;;;;;15.24;71.37;98371.59;4957881;28;20057;-71
2023/07/13 04:55:02;;;;;;;6.35;3.83;;;;;;;15.44;71.39;98366.72;4957549;28;20042;-70
2023/07/13 04:57:29;;;;;;;7.35;3.50;;;;;;;15.64;70.78;98359.13;4957711;28;20675;-70
2023/07/13 04:59:54;;;;;;;4.80;3.42;;;;;;;15.86;69.87;98354.84;4958013;28;20042;-70
2023/07/13 05:02:23;;;;;;;8.63;4.43;;;;;;;16.14;69.39;98364.09;4956034;28;20057;-70
2023/07/13 05:04:48;;;;;;;5.53;3.60;;;;;;;16.38;68.09;98360.44;4957635;28;20042;-70
2023/07/13 05:07:13;;;;;;;5.10;3.90;;;;;;;16.53;67.13;98360.53;4972724;28;20042;-70
2023/07/13 05:09:39;;;;;;;5.95;3.60;;;;;;;16.68;66.28;98358.78;4956179;28;20057;-70
2023/07/13 05:12:06;;;;;;;6.45;3.67;;;;;;;16.87;66.39;98358.28;4957572;28;20057;-70
2023/07/13 05:14:31;;;;;;;6.22;3.92;;;;;;;17.04;65.35;98356.31;4957623;28;20049;-70
2023/07/13 05:16:57;;;;;;;4.50;3.47;;;;;;;17.18;64.95;98362.72;4957397;28;20370;-71
2023/07/13 05:19:22;;;;;;;4.13;3.33;;;;;;;17.36;64.81;98360.53;4957431;28;20057;-69
2023/07/13 05:21:47;;;;;;;7.30;3.92;;;;;;;17.51;63.99;98361.38;4956328;28;20050;-68
2023/07/13 05:24:13;;;;;;;5.45;3.85;;;;;;;17.64;63.67;98347.28;4957307;28;20054;-67
2023/07/13 05:26:38;;;;;;;4.55;3.28;;;;;;;17.76;63.63;98356.59;4957148;28;20497;-69
2023/07/13 05:29:03;;;;;;;7.32;4.47;;;;;;;17.80;63.14;98347.13;4952989;28;20050;-67
2023/07/13 05:31:28;;;;;;;9.50;3.90;;;;;;;17.75;62.49;98360.31;4937889;28;20039;-66
2023/07/13 05:33:53;;;;;;;4.57;3.40;;;;;;;17.74;62.69;98356.75;4937048;28;20057;-66
2023/07/13 05:36:18;;;;;;;8.20;4.63;;;;;;;17.84;62.72;98344.84;4937846;28;20050;-67
2023/07/13 05:38:44;;;;;;;5.13;3.70;;;;;;;18.05;62.70;98340.41;4936706;28;20138;-67
2023/07/13 05:41:09;;;;;;;7.00;4.05;;;;;;;18.34;61.49;98358.38;4938282;28;20047;-67
2023/07/13 05:43:34;;;;;;;5.05;3.80;;;;;;;18.76;61.01;98354.06;4957309;28;20050;-68
2023/07/13 05:45:59;;;;;;;4.70;3.58;;;;;;;19.33;60.19;98348.53;4956774;28;20043;-68
2023/07/13 05:48:24;;;;;;;5.70;3.60;;;;;;;19.78;58.54;98355.28;4956772;28;20507;-68
2023/07/13 05:50:49;;;;;;;5.22;3.60;;;;;;;20.06;56.85;98343.59;4956744;28;20034;-68
2023/07/13 05:53:15;;;;;;;4.78;3.85;;;;;;;20.12;56.49;98346.31;4956862;28;20050;-69
2023/07/13 05:55:47;;;;;;;5.25;3.40;;;;;;;20.10;55.54;98334.00;4956528;28;20527;-69
2023/07/13 05:58:13;;;;;;;4.63;3.60;;;;;;;20.12;54.87;98338.19;4956745;28;20069;-69
2023/07/13 06:00:39;;;;;;;6.45;3.63;;;;;;;20.28;54.83;98339.72;4956671;28;20081;-69
2023/07/13 06:03:06;;;;;;;5.53;4.18;;;;;;;20.49;54.02;98342.31;4954737;28;20065;-69
2023/07/13 06:05:33;;;;;;;5.05;3.50;;;;;;;20.69;53.74;98346.91;4971507;28;20034;-69
2023/07/13 06:08:00;;;;;;;4.82;3.30;;;;;;;20.90;52.96;98338.63;4956522;28;20061;-69
2023/07/13 06:10:25;;;;;;;4.30;3.63;;;;;;;20.92;52.10;98337.38;4955502;28;20049;-70
2023/07/13 06:12:50;;;;;;;5.70;3.97;;;;;;;20.93;52.19;98327.38;4956429;28;20053;-70
2023/07/13 06:15:16;;;;;;;4.88;3.72;;;;;;;20.90;51.73;98317.78;4956461;28;20045;-70
2023/07/13 06:17:41;;;;;;;6.65;3.55;;;;;;;20.98;51.01;98304.03;4954900;28;20061;-69
2023/07/13 06:20:07;;;;;;;4.93;3.40;;;;;;;21.23;51.12;98328.66;4956510;28;20046;-68
2023/07/13 06:22:32;;;;;;;8.65;4.10;;;;;;;21.57;50.70;98314.00;4956475;28;20516;-68
2023/07/13 06:24:57;;;;;;;6.40;3.30;;;;;;;21.86;49.94;98311.84;4971238;28;20046;-68
2023/07/13 06:27:23;;;;;;;7.00;3.65;;;;;;;21.97;48.98;98306.59;4956203;28;20050;-68
2023/07/13 06:29:48;;;;;;;3.63;3.25;;;;;;;22.16;48.42;98307.56;4956097;28;20041;-68
2023/07/13 06:32:13;;;;;;;5.40;3.53;;;;;;;22.37;46.54;98307.25;4955867;28;20054;-69
2023/07/13 06:34:38;;;;;;;6.40;3.70;;;;;;;22.72;46.67;98304.09;4938764;28;20409;-69
2023/07/13 06:37:03;;;;;;;3.92;3.42;;;;;;;22.87;46.39;98309.28;4955911;28;20046;-70
2023/07/13 06:39:29;;;;;;;5.88;3.55;;;;;;;22.79;45.29;98307.66;4956182;28;20042;-71
2023/07/13 06:41:54;;;;;;;3.53;3.13;;;;;;;22.66;45.68;98308.56;4971376;28;20061;-70
2023/07/13 06:44:19;;;;;;;5.00;3.05;;;;;;;22.50;45.14;98314.50;4954583;28;20061;-71
2023/07/13 06:46:44;;;;;;;4.38;3.25;;;;;;;22.56;46.08;98310.09;4938669;28;20049;-70
2023/07/13 06:49:09;;;;;;;4.93;3.60;;;;;;;22.45;45.75;98327.91;4955853;28;20046;-70
2023/07/13 06:51:37;;;;;;;5.25;3.33;;;;;;;22.18;45.75;98318.22;4955919;28;20540;-69
2023/07/13 06:54:03;;;;;;;5.25;3.80;;;;;;;21.84;46.74;98336.47;4955799;28;20042;-70
2023/07/13 06:56:28;;;;;;;5.60;3.72;;;;;;;21.50;47.15;98313.19;4955507;28;20482;-70
2023/07/13 06:58:53;;;;;;;5.20;3.45;;;;;;;21.24;47.68;98315.94;4955830;28;20497;-70
2023/07/13 07:01:20;;;;;;;6.68;3.70;;;;;;;21.02;48.23;98326.94;4955747;28;20046;-70
2023/07/13 07:03:47;;;;;;;4.28;3.45;;;;;;;20.87;48.49;98326.34;4955914;28;20493;-70
2023/07/13 07:06:16;;;;;;;5.85;3.28;;;;;;;20.71;48.51;98323.19;4955904;28;20774;-69
2023/07/13 07:08:42;;;;;;;5.40;3.35;;;;;;;20.48;49.47;98318.13;4955702;28;20621;-69
2023/07/13 07:11:19;;;;;;;6.35;3.17;;;;;;;20.33;49.85;98322.84;4955510;28;20046;-69
2023/07/13 07:13:45;;;;;;;7.68;5.15;;;;;;;20.00;50.46;98318.16;4955704;28;20612;-69
2023/07/13 07:16:10;;;;;;;4.85;3.78;;;;;;;19.91;50.68;98317.50;4954092;28;20410;-69
2023/07/13 07:18:36;;;;;;;9.77;4.35;;;;;;;19.91;51.52;98311.25;4955577;28;20039;-69
2023/07/13 07:21:02;;;;;;;10.27;4.07;;;;;;;19.87;51.01;98316.22;4955413;28;20054;-67
2023/07/13 07:23:27;;;;;;;5.93;3.85;;;;;;;19.84;51.34;98315.81;4955605;28;20049;-67
2023/07/13 07:25:52;;;;;;;7.18;3.72;;;;;;;19.76;51.45;98318.66;4955259;28;20050;-67
2023/07/13 07:28:18;;;;;;;5.45;3.60;;;;;;;19.65;51.83;98328.16;4955418;28;20034;-68
2023/07/13 07:30:44;;;;;;;7.40;4.35;;;;;;;19.57;52.72;98325.63;4955386;28;20045;-69
2023/07/13 07:33:10;;;;;;;4.97;3.50;;;;;;;19.51;52.77;98329.16;4955575;28;20401;-68
2023/07/13 07:35:35;;;;;;;4.85;3.60;;;;;;;19.49;53.42;98355.53;4970917;28;20046;-68
2023/07/13 07:38:00;;;;;;;7.07;3.92;;;;;;;19.48;53.61;98324.09;4955385;28;20041;-67
2023/07/13 07:40:26;;;;;;;10.95;4.43;;;;;;;19.36;53.65;98326.50;4955614;28;20516;-67
2023/07/13 07:42:51;;;;;;;7.70;4.05;;;;;;;19.35;54.01;98330.25;4955481;28;20046;-68
2023/07/13 07:45:16;;;;;;;6.32;3.78;;;;;;;19.39;54.22;98328.00;4953589;28;20054;-68
2023/07/13 07:47:41;;;;;;;5.60;3.90;;;;;;;19.44;54.01;98341.72;4955343;28;20515;-69
2023/07/13 07:50:07;;;;;;;7.50;4.13;;;;;;;19.43;53.95;98350.88;4937025;28;20054;-67
2023/07/13 07:52:32;;;;;;;5.32;3.78;;;;;;;19.39;53.92;98345.03;4955546;28;20038;-68
2023/07/13 07:54:58;;;;;;;5.80;3.58;;;;;;;19.20;54.20;98349.25;4955155;28;20046;-68
2023/07/13 07:57:23;;;;;;;6.70;3.83;;;;;;;19.04;54.37;98309.03;4957680;28;20061;-68
2023/07/13 07:59:48;;;;;;;4.28;3.53;;;;;;;18.92;55.03;98340.31;4958978;28;20042;-66
2023/07/13 08:02:14;;;;;;;13.20;3.90;;;;;;;18.85;54.99;98342.09;4958950;28;20057;-67
2023/07/13 08:04:39;;;;;;;5.82;3.90;;;;;;;18.82;54.57;98337.09;4958806;28;20777;-66
2023/07/13 08:07:05;;;;;;;8.32;3.53;;;;;;;18.74;54.18;98345.31;4957403;28;20452;-68
2023/07/13 08:09:30;;;;;;;8.50;4.03;;;;;;;18.61;54.33;98356.00;4958599;28;20046;-67
2023/07/13 08:11:55;;;;;;;5.13;3.42;;;;;;;18.59;54.74;98352.66;4958505;28;20420;-67
2023/07/13 08:14:20;;;;;;;6.00;3.72;;;;;;;18.66;54.94;98348.97;4958841;28;20057;-68
2023/07/13 08:16:46;;;;;;;4.63;3.60;;;;;;;18.73;54.59;98355.28;4958607;28;20053;-68
2023/07/13 08:19:11;;;;;;;4.80;3.58;;;;;;;18.78;54.86;98306.09;4958615;28;20050;-69
2023/07/13 08:21:37;;;;;;;5.22;3.63;;;;;;;18.70;55.02;98338.63;4957077;28;20433;-68
2023/07/13 08:24:02;;;;;;;3.72;3.13;;;;;;;18.54;55.50;98353.19;4956597;28;20050;-69
2023/07/13 08:26:27;;;;;;;6.22;3.80;;;;;;;18.46;55.05;98354.16;4941152;28;20053;-69
2023/07/13 08:28:53;;;;;;;4.75;3.15;;;;;;;18.38;55.70;98350.72;4958357;28;20065;-68
2023/07/13 08:31:18;;;;;;;4.57;3.72;;;;;;;18.28;56.11;98356.44;4958372;28;20046;-69
2023/07/13 08:33:43;;;;;;;7.53;3.95;;;;;;;18.11;56.38;98363.91;4958512;28;20042;-70
2023/07/13 08:36:09;;;;;;;3.88;3.33;;;;;;;18.04;57.13;98356.75;4957554;28;20049;-69
2023/07/13 08:38:34;;;;;;;5.57;3.47;;;;;;;17.96;57.74;98346.06;4958215;28;20053;-70
2023/07/13 08:40:59;;;;;;;8.70;3.75;;;;;;;17.91;58.74;98370.91;4958450;28;20054;-70
2023/07/13 08:43:36;;;;;;;5.05;3.53;;;;;;;17.98;60.08;98347.53;4958111;28;20500;-68
2023/07/13 08:46:30;;;;;;;4.97;3.80;;;;;;;18.07;60.28;98356.34;4957920;28;20051;-70
2023/07/13 08:49:05;;;;;;;5.95;3.90;;;;;;;18.02;60.19;98366.88;4957848;28;20042;-69
2023/07/13 08:51:39;;;;;;;6.22;4.10;;;;;;;17.91;60.64;98370.06;4958158;28;20046;-70
2023/07/13 08:54:32;;;;;;;5.30;3.75;;;;;;;17.89;61.60;98367.56;4957819;28;20401;-69
2023/07/13 08:57:02;;;;;;;4.55;3.80;;;;;;;17.66;62.04;98367.66;4956921;28;20062;-71
2023/07/13 08:59:31;;;;;;;7.85;4.53;;;;;;;17.61;62.34;98375.41;4972422;28;20050;-69
2023/07/13 09:02:08;;;;;;;5.10;3.85;;;;;;;17.60;63.34;98375.63;4957775;28;20050;-69
2023/07/13 09:04:42;;;;;;;6.70;3.67;;;;;;;17.57;63.96;98373.28;4957609;28;20413;-70
2023/07/13 09:07:20;;;;;;;6.50;4.27;;;;;;;17.55;64.29;98370.78;4949203;28;20038;-70
2023/07/13 09:09:48;;;;;;;7.43;4.15;;;;;;;17.45;64.70;98383.69;4937871;28;20368;-69
2023/07/13 09:12:23;;;;;;;5.32;3.88;;;;;;;17.40;65.73;98388.75;4951459;28;20057;-69
2023/07/13 09:14:53;;;;;;;;;;;;;;;17.62;66.07;98379.78;4958077;28;20050;-68
2023/07/13 09:17:23;;;;;;;6.15;4.18;;;;;;;17.49;65.78;98386.84;4957522;28;19921;-69
2023/07/13 09:19:57;;;;;;;6.40;4.53;;;;;;;17.51;65.85;98384.78;4957617;28;20046;-68
2023/07/13 09:22:25;;;;;;;7.80;4.68;;;;;;;17.49;66.08;98398.47;4956796;28;20055;-68
2023/07/13 09:25:29;;;;;;;5.05;4.03;;;;;;;17.59;67.09;98393.66;4941864;28;20055;-67
2023/07/13 09:28:12;;;;;;;4.90;3.80;;;;;;;17.47;66.41;98392.41;4940935;28;20054;-68
2023/07/13 09:30:56;;;;;;;9.73;4.30;;;;;;;17.51;67.05;98396.41;4941717;28;20046;-68
2023/07/13 09:33:22;;;;;;;7.10;4.65;;;;;;;17.35;67.01;98399.28;4937992;28;20513;-69
2023/07/13 09:35:49;;;;;;;6.53;4.90;;;;;;;17.26;67.47;98398.53;4940192;28;20043;-69
2023/07/13 09:38:17;;;;;;;9.45;5.30;;;;;;;17.16;67.78;98408.69;4940728;28;20042;-69
2023/07/13 09:40:54;;;;;;;7.30;4.80;;;;;;;17.12;68.18;98401.16;4942230;28;20058;-67
2023/07/13 09:43:20;;;;;;;6.70;4.43;;;;;;;16.97;68.80;98410.03;4937952;28;20057;-68
2023/07/13 09:45:49;;;;;;;8.73;4.85;;;;;;;16.92;69.52;98396.28;4956581;28;20054;-69
2023/07/13 09:48:17;;;;;;;13.10;5.32;;;;;;;16.87;69.62;98404.03;4957211;28;20053;-69
2023/07/13 09:50:44;;;;;;;9.52;5.03;;;;;;;16.83;70.04;98400.03;4943435;28;20050;-70
2023/07/13 09:53:14;;;;;;;7.38;4.90;;;;;;;16.79;70.72;98398.72;4953298;28;20049;-70
2023/07/13 09:55:42;;;;;;;6.45;4.63;;;;;;;16.69;71.05;98403.50;4939370;28;20059;-67
2023/07/13 09:58:19;;;;;;;11.35;5.72;;;;;;;16.69;71.74;98406.19;4938210;28;20050;-69
2023/07/13 10:00:58;;;;;;;7.20;4.68;;;;;;;16.65;72.35;98410.25;4957205;28;20394;-69
2023/07/13 10:03:27;;;;;;;11.50;5.90;;;;;;;16.51;72.64;98411.81;4940286;28;20621;-68
2023/07/13 10:05:54;;;;;;;6.90;4.63;;;;;;;16.42;73.03;98410.19;4939986;28;20047;-70
2023/07/13 10:08:24;;;;;;;5.38;4.82;;;;;;;16.38;73.38;98408.03;4940057;28;20053;-68
2023/07/13 10:11:02;;;;;;;9.30;4.57;;;;;;;16.36;73.61;98405.53;4941140;28;21142;-69
2023/07/13 10:13:37;;;;;;;7.15;4.57;;;;;;;16.23;73.80;98403.41;4941114;28;20050;-68
2023/07/13 10:16:05;;;;;;;5.88;4.55;;;;;;;16.08;73.93;98428.50;4955062;28;20043;-68
2023/07/13 10:18:43;;;;;;;7.60;4.88;;;;;;;16.04;74.53;98416.41;4954527;28;20073;-69
2023/07/13 10:21:18;;;;;;;9.40;5.55;;;;;;;15.96;75.32;98406.53;4936741;28;20053;-68
2023/07/13 10:23:47;;;;;;;7.90;5.07;;;;;;;15.86;74.99;98404.06;4939542;28;20054;-68
2023/07/13 10:26:19;;;;;;;7.40;4.82;;;;;;;15.74;75.31;98421.56;4936882;28;20046;-67
2023/07/13 10:28:51;;;;;;;10.07;4.78;;;;;;;15.71;75.36;98405.78;4937120;28;20409;-69
2023/07/13 10:31:17;;;;;;;12.70;5.10;;;;;;;15.67;75.59;98420.56;4937900;28;20042;-68
2023/07/13 10:33:42;;;;;;;7.57;4.78;;;;;;;15.63;75.92;98413.03;4956316;28;20053;-68
2023/07/13 10:36:14;;;;;;;7.35;4.78;;;;;;;15.67;75.99;98411.69;4953747;28;20050;-69
2023/07/13 10:38:40;;;;;;;9.48;4.90;;;;;;;15.58;76.04;98425.09;4955273;28;20147;-70
2023/07/13 10:41:16;;;;;;;7.85;4.88;;;;;;;15.55;76.67;98422.78;4954787;28;20054;-67
2023/07/13 10:43:50;;;;;;;10.88;4.70;;;;;;;15.46;76.98;98396.88;4938788;28;20528;-67
2023/07/13 10:46:19;;;;;;;6.68;4.85;;;;;;;15.37;77.33;98432.81;4951809;28;20058;-67
2023/07/13 10:48:49;;;;;;;6.32;4.97;;;;;;;15.30;77.56;98422.94;4954595;28;20042;-70
2023/07/13 10:51:20;;;;;;;7.90;4.88;;;;;;;15.26;78.10;98433.19;4951656;28;20062;-69
2023/07/13 10:53:46;;;;;;;10.73;5.40;;;;;;;15.18;78.66;98431.34;4954743;28;20038;-69
2023/07/13 10:56:14;;;;;;;9.60;5.53;;;;;;;15.17;79.08;98428.81;4954224;28;20058;-70
2023/07/13 10:58:42;;;;;;;6.72;5.13;;;;;;;15.15;79.33;98439.72;4955956;28;20042;-71
2023/07/13 11:01:12;;;;;;;7.88;4.88;;;;;;;15.12;79.84;98437.38;4953645;28;20042;-68
2023/07/13 11:03:43;;;;;;;8.07;5.93;;;;;;;15.10;80.19;98433.19;4939522;28;20417;-68
2023/07/13 11:06:27;;;;;;;9.60;5.63;;;;;;;15.00;80.48;98427.16;4939245;28;20043;-67
2023/07/13 11:08:54;;;;;;;6.32;4.53;;;;;;;14.96;81.20;98433.84;4937519;28;20051;-67
2023/07/13 11:11:29;;;;;;;10.35;5.22;;;;;;;15.00;81.22;98428.00;4935557;28;20062;-67
2023/07/13 11:13:58;;;;;;;7.70;5.28;;;;;;;14.90;81.60;98425.44;4953426;28;20069;-67
2023/07/13 11:16:23;;;;;;;13.55;4.93;;;;;;;14.87;81.81;98422.28;4938486;28;20045;-68
2023/07/13 11:19:01;;;;;;;9.93;5.20;;;;;;;14.87;81.78;98423.13;4945759;28;20061;-67
2023/07/13 11:21:28;;;;;;;9.73;5.03;;;;;;;14.79;81.85;98430.28;4942990;28;20053;-67
2023/07/13 11:24:02;;;;;;;7.13;4.68;;;;;;;14.82;82.31;98419.25;4941265;28;20350;-66
2023/07/13 11:26:51;;;;;;;7.32;5.20;;;;;;;14.95;81.89;98410.69;4938445;28;20066;-68
2023/07/13 11:29:17;;;;;;;6.82;4.85;;;;;;;14.86;82.13;98420.59;4947311;28;20505;-67
2023/07/13 11:31:52;;;;;;;9.25;5.15;;;;;;;14.90;81.84;98412.03;4953547;28;20121;-67
2023/07/13 11:34:30;;;;;;;7.63;5.10;;;;;;;14.94;81.56;98414.38;4959041;28;20485;-65
2023/07/13 11:36:58;;;;;;;11.77;5.57;;;;;;;14.90;81.70;98416.56;4974347;28;20058;-66